Aviation Digital Data Service (ADDS)

Output produced by METARs form (0218 UTC 22 January 2020)
found at http://aviationweather.gov/metar/data/
 
METAR text: KGGG 220153Z 13005KT 10SM CLR 06/M02 A3039 RMK AO2 SLP296 T00611022
Conditions at: KGGG (LONGVIEW , TX, US) observed 0153 UTC 22 January 2020
Temperature: 6.1°C (43°F)
Dewpoint: -2.2°C (28°F) [RH = 55%]
Pressure (altimeter): 30.39 inches Hg (1029.2 mb)
[Sea-level pressure: 1029.6 mb]
Winds: from the SE (130 degrees) at 6 MPH (5 knots; 2.6 m/s)
Visibility: 10 or more miles (16+ km)
Ceiling: at least 12,000 feet AGL
Clouds: sky clear below 12,000 feet AGL
Weather: no significant weather observed at this time

METAR text: KGGG 220053Z 09006KT 10SM CLR 06/M03 A3038 RMK AO2 SLP293 T00611028
Conditions at: KGGG (LONGVIEW , TX, US) observed 0053 UTC 22 January 2020
Temperature: 6.1°C (43°F)
Dewpoint: -2.8°C (27°F) [RH = 53%]
Pressure (altimeter): 30.38 inches Hg (1028.9 mb)
[Sea-level pressure: 1029.3 mb]
Winds: from the E (90 degrees) at 7 MPH (6 knots; 3.1 m/s)
Visibility: 10 or more miles (16+ km)
Ceiling: at least 12,000 feet AGL
Clouds: sky clear below 12,000 feet AGL
Weather: no significant weather observed at this time

Forecast for: KGGG (LONGVIEW , TX, US)
Text: KGGG 212345Z 2200/2224 09008KT P6SM SKC
Forecast period: 0000 to 1200 UTC 22 January 2020
Forecast type: FROM: standard forecast or significant change
Winds: from the E (90 degrees) at 9 MPH (8 knots; 4.1 m/s)
Visibility: 6 or more miles 10+ km)
Clouds: clear skies
Weather: no significant weather forecast for this period
Text: FM221200 12008KT P6SM -SHRA OVC060
Forecast period: 1200 to 1500 UTC 22 January 2020
Forecast type: FROM: standard forecast or significant change
Winds: from the ESE (120 degrees) at 9 MPH (8 knots; 4.1 m/s)
Visibility: 6 or more miles 10+ km)
Ceiling: 6000 feet AGL
Clouds: overcast cloud deck at 6000 feet AGL
Weather: -SHRA  (light rain showers)
Text: FM221500 13010KT 4SM -SHRA OVC016
Forecast period: 1500 to 1600 UTC 22 January 2020
Forecast type: FROM: standard forecast or significant change
Winds: from the SE (130 degrees) at 12 MPH (10 knots; 5.1 m/s)
Visibility: 4 miles (6 km)
Ceiling: 1600 feet AGL
Clouds: overcast cloud deck at 1600 feet AGL
Weather: -SHRA  (light rain showers)
Text: FM221600 13009KT 3SM -SHRA OVC009
Forecast period: 1600 to 1800 UTC 22 January 2020
Forecast type: FROM: standard forecast or significant change
Winds: from the SE (130 degrees) at 10 MPH (9 knots; 4.6 m/s)
Visibility: 3 miles (5 km)
Ceiling: 900 feet AGL
Clouds: overcast cloud deck at 900 feet AGL
Weather: -SHRA  (light rain showers)
Text: FM221800 14009KT 2SM -RA BR OVC004
Forecast period: 1800 UTC 22 January 2020 to 0000 UTC 23 January 2020
Forecast type: FROM: standard forecast or significant change
Winds: from the SE (140 degrees) at 10 MPH (9 knots; 4.6 m/s)
Visibility: 2.00 miles (3.22 km)
Ceiling: 400 feet AGL
Clouds: overcast cloud deck at 400 feet AGL
Weather: -RA BR  (light rain, mist)